createdAt,value
2019-03-18T00:04:47.821Z,3.80
2019-03-18T00:09:40.920Z,3.80
2019-03-18T00:14:33.992Z,3.60
2019-03-18T00:19:27.650Z,3.50
2019-03-18T00:24:20.756Z,3.50
2019-03-18T00:29:13.852Z,3.40
2019-03-18T00:34:06.965Z,3.50
2019-03-18T00:39:00.107Z,3.50
2019-03-18T00:43:53.229Z,3.50
2019-03-18T00:48:46.368Z,3.40
2019-03-18T00:53:39.476Z,3.40
2019-03-18T00:58:32.612Z,3.40
2019-03-18T01:03:25.711Z,3.30
2019-03-18T01:08:18.851Z,3.30
2019-03-18T01:13:11.983Z,3.30
2019-03-18T01:18:05.121Z,3.30
2019-03-18T01:22:58.249Z,3.30
2019-03-18T01:27:51.326Z,3.40
2019-03-18T01:32:44.433Z,3.30
2019-03-18T01:37:37.554Z,3.30
2019-03-18T01:42:30.672Z,3.30
2019-03-18T01:47:23.910Z,3.30
2019-03-18T01:52:17.017Z,3.30
2019-03-18T01:57:10.109Z,3.30
2019-03-18T02:02:03.231Z,3.30
2019-03-18T02:06:56.331Z,3.30
2019-03-18T02:11:49.451Z,3.30
2019-03-18T02:16:42.565Z,3.30
2019-03-18T02:21:35.736Z,3.30
2019-03-18T02:26:28.804Z,3.40
2019-03-18T02:31:21.964Z,3.40
2019-03-18T02:36:15.054Z,3.40
2019-03-18T02:41:08.747Z,3.30
2019-03-18T02:46:09.791Z,3.20
2019-03-18T02:50:57.664Z,3.20
2019-03-18T02:55:51.311Z,3.20
2019-03-18T03:00:44.467Z,3.30
2019-03-18T03:05:37.594Z,3.30
2019-03-18T03:10:30.708Z,3.30
2019-03-18T03:15:23.827Z,3.20
2019-03-18T03:20:16.940Z,3.20
2019-03-18T03:25:10.215Z,3.20
2019-03-18T03:30:04.533Z,3.20
2019-03-18T03:34:58.035Z,3.20
2019-03-18T03:39:51.136Z,3.20
2019-03-18T03:44:44.261Z,3.20
2019-03-18T03:49:37.447Z,3.30
2019-03-18T03:54:30.682Z,3.30
2019-03-18T03:59:23.935Z,3.40
2019-03-18T04:04:17.151Z,3.60
2019-03-18T04:09:10.329Z,3.70
2019-03-18T04:14:03.673Z,3.90
2019-03-18T04:18:56.831Z,4.10
2019-03-18T04:23:50.390Z,4.40
2019-03-18T04:28:43.496Z,4.60
2019-03-18T04:33:39.228Z,4.90
2019-03-18T04:38:32.192Z,5.10
2019-03-18T04:43:27.237Z,5.20
2019-03-18T04:48:20.725Z,5.20
2019-03-18T04:53:13.895Z,5.20
2019-03-18T04:58:06.976Z,5.00
2019-03-18T05:03:00.267Z,5.00
2019-03-18T05:07:53.372Z,5.30
2019-03-18T05:12:46.509Z,5.40
2019-03-18T05:17:39.582Z,5.30
2019-03-18T05:22:32.716Z,5.30
2019-03-18T05:27:25.823Z,5.30
2019-03-18T05:32:18.975Z,5.50
2019-03-18T05:37:12.111Z,5.50
2019-03-18T05:42:05.551Z,5.30
2019-03-18T05:46:58.685Z,5.60
2019-03-18T05:51:51.780Z,5.70
2019-03-18T05:56:44.902Z,5.70
2019-03-18T06:01:38.000Z,5.70
2019-03-18T06:06:31.136Z,5.70
2019-03-18T06:11:24.259Z,5.90
2019-03-18T06:16:17.345Z,5.80
2019-03-18T06:21:10.537Z,5.80
2019-03-18T06:26:03.709Z,5.70
2019-03-18T06:30:56.814Z,5.70
2019-03-18T06:35:49.930Z,5.90
2019-03-18T06:40:43.054Z,6.10
2019-03-18T06:45:36.165Z,6.50
2019-03-18T06:50:29.586Z,6.50
2019-03-18T06:55:22.703Z,6.50
2019-03-18T07:00:15.845Z,6.40
2019-03-18T07:05:09.170Z,6.40
2019-03-18T07:10:02.407Z,7.10
2019-03-18T07:14:55.710Z,9.20
2019-03-18T07:19:49.096Z,9.70
2019-03-18T07:24:42.201Z,8.90
2019-03-18T07:29:35.329Z,8.20
2019-03-18T07:34:28.385Z,8.00
2019-03-18T07:39:21.537Z,8.00
2019-03-18T07:44:14.664Z,7.90
2019-03-18T07:49:07.995Z,8.00
2019-03-18T07:54:01.297Z,8.30
2019-03-18T07:58:54.603Z,9.60
2019-03-18T08:03:48.352Z,12.20
2019-03-18T08:08:41.517Z,13.40
2019-03-18T08:13:34.810Z,13.90
2019-03-18T08:18:28.021Z,13.20
2019-03-18T08:23:21.309Z,13.50
2019-03-18T08:28:14.621Z,12.70
2019-03-18T08:33:07.974Z,13.50
2019-03-18T08:38:01.176Z,13.60
2019-03-18T08:42:54.371Z,14.30
2019-03-18T08:47:47.510Z,15.00
2019-03-18T08:52:40.834Z,14.40
2019-03-18T08:57:34.266Z,15.80
2019-03-18T09:02:27.503Z,15.90
2019-03-18T09:07:20.708Z,15.80
2019-03-18T09:12:14.079Z,15.10
2019-03-18T09:17:07.436Z,13.40
2019-03-18T09:22:00.679Z,12.20
2019-03-18T09:27:02.353Z,11.90
2019-03-18T09:31:49.005Z,12.10
2019-03-18T09:36:42.268Z,11.90
2019-03-18T09:41:35.567Z,12.70
2019-03-18T09:46:28.792Z,13.00
2019-03-18T09:51:22.126Z,13.70
2019-03-18T09:56:15.465Z,14.40
2019-03-18T10:01:08.778Z,14.10
2019-03-18T10:06:01.853Z,13.60
2019-03-18T10:10:55.321Z,13.00
2019-03-18T10:15:48.565Z,12.80
2019-03-18T10:20:41.861Z,12.70
2019-03-18T10:25:35.089Z,12.50
2019-03-18T10:30:28.370Z,12.30
2019-03-18T10:35:21.545Z,12.00
2019-03-18T10:40:14.958Z,11.90
2019-03-18T10:45:08.874Z,11.90
2019-03-18T10:50:02.213Z,12.10
2019-03-18T10:54:55.405Z,12.20
2019-03-18T10:59:48.621Z,12.30
2019-03-18T11:04:41.965Z,12.70
2019-03-18T11:09:35.234Z,13.10
2019-03-18T11:14:28.419Z,13.70
2019-03-18T11:19:21.658Z,14.20
2019-03-18T11:24:14.916Z,13.60
2019-03-18T11:29:08.287Z,13.20
2019-03-18T11:34:01.500Z,13.00
2019-03-18T11:38:54.852Z,13.00
2019-03-18T11:43:48.064Z,12.60
2019-03-18T11:48:41.321Z,11.60
2019-03-18T11:53:34.628Z,10.70
2019-03-18T11:58:27.878Z,10.00
2019-03-18T12:03:21.207Z,10.10
2019-03-18T12:08:14.368Z,10.60
2019-03-18T12:13:07.615Z,11.10
2019-03-18T12:18:00.935Z,11.30
2019-03-18T12:22:54.142Z,11.60
2019-03-18T12:27:47.488Z,11.30
2019-03-18T12:32:40.688Z,11.20
2019-03-18T12:37:34.126Z,11.30
2019-03-18T12:42:27.298Z,11.50
2019-03-18T12:47:20.575Z,11.60
2019-03-18T12:52:13.811Z,11.70
2019-03-18T12:57:07.037Z,11.80
2019-03-18T13:02:00.205Z,11.70
2019-03-18T13:06:53.460Z,11.70
2019-03-18T13:11:46.824Z,11.90
2019-03-18T13:16:40.051Z,11.70
2019-03-18T13:21:33.448Z,12.20
2019-03-18T13:26:26.553Z,12.60
2019-03-18T13:31:19.893Z,13.20
2019-03-18T13:36:13.159Z,13.30
2019-03-18T13:41:06.504Z,13.10
2019-03-18T13:45:59.678Z,12.50
2019-03-18T13:50:53.013Z,12.00
2019-03-18T13:55:46.344Z,11.20
2019-03-18T14:00:39.665Z,10.10
2019-03-18T14:05:32.825Z,9.10
2019-03-18T14:10:26.486Z,8.50
2019-03-18T14:15:19.704Z,7.90
2019-03-18T14:20:14.100Z,8.10
2019-03-18T14:25:07.534Z,8.30
2019-03-18T14:30:00.799Z,8.50
2019-03-18T14:34:53.981Z,9.00
2019-03-18T14:39:47.323Z,9.50
2019-03-18T14:44:40.647Z,9.60
2019-03-18T14:49:33.813Z,10.10
2019-03-18T14:54:26.924Z,10.70
2019-03-18T14:59:20.101Z,11.10
2019-03-18T15:04:13.464Z,11.10
2019-03-18T15:09:08.138Z,11.20
2019-03-18T15:14:01.321Z,10.60
2019-03-18T15:18:54.509Z,9.90
2019-03-18T15:23:47.749Z,10.10
2019-03-18T15:28:40.911Z,10.40
2019-03-18T15:33:34.148Z,10.70
2019-03-18T15:38:27.483Z,10.70
2019-03-18T15:43:20.704Z,10.90
2019-03-18T15:48:14.071Z,10.90
2019-03-18T15:53:07.396Z,11.10
2019-03-18T15:58:00.712Z,11.40
2019-03-18T16:02:53.839Z,11.50
2019-03-18T16:07:47.197Z,11.70
2019-03-18T16:12:40.554Z,11.80
2019-03-18T16:17:33.814Z,11.70
2019-03-18T16:22:27.040Z,11.60
2019-03-18T16:27:20.388Z,11.60
2019-03-18T16:32:13.654Z,11.40
2019-03-18T16:37:06.974Z,11.00
2019-03-18T16:42:00.180Z,10.60
2019-03-18T16:46:53.415Z,10.40
2019-03-18T16:51:46.542Z,10.20
2019-03-18T16:56:39.906Z,10.00
2019-03-18T17:01:33.096Z,9.80
2019-03-18T17:06:26.227Z,9.60
2019-03-18T17:11:19.466Z,9.50
2019-03-18T17:16:12.842Z,9.40
2019-03-18T17:21:06.156Z,9.20
2019-03-18T17:25:59.394Z,9.10
2019-03-18T17:30:52.732Z,8.90
2019-03-18T17:35:45.892Z,8.80
2019-03-18T17:40:39.008Z,8.60
2019-03-18T17:45:32.139Z,8.50
2019-03-18T17:50:25.246Z,8.20
2019-03-18T17:55:18.377Z,8.10
2019-03-18T18:00:16.350Z,7.90
2019-03-18T18:05:09.490Z,7.70
2019-03-18T18:10:02.612Z,7.60
2019-03-18T18:14:55.726Z,7.50
2019-03-18T18:19:48.861Z,7.50
2019-03-18T18:24:42.007Z,7.40
2019-03-18T18:29:35.126Z,7.30
2019-03-18T18:34:28.222Z,7.20
2019-03-18T18:39:21.358Z,7.10
2019-03-18T18:44:14.494Z,7.10
2019-03-18T18:49:07.581Z,7.00
2019-03-18T18:54:00.834Z,6.90
2019-03-18T18:58:53.979Z,6.80
2019-03-18T19:03:47.118Z,6.60
2019-03-18T19:08:40.233Z,6.50
2019-03-18T19:13:33.360Z,6.40
2019-03-18T19:18:37.270Z,6.20
2019-03-18T19:23:21.493Z,6.10
2019-03-18T19:28:14.603Z,6.10
2019-03-18T19:33:08.116Z,6.00
2019-03-18T19:38:01.218Z,5.90
2019-03-18T19:42:54.342Z,5.90
2019-03-18T19:47:47.482Z,5.80
2019-03-18T19:52:40.587Z,5.60
2019-03-18T19:57:33.869Z,5.50
2019-03-18T20:02:27.074Z,5.30
2019-03-18T20:07:20.333Z,5.30
2019-03-18T20:12:13.653Z,5.40
2019-03-18T20:17:06.998Z,5.40
2019-03-18T20:22:00.190Z,5.40
2019-03-18T20:26:53.425Z,5.30
2019-03-18T20:31:46.641Z,5.20
2019-03-18T20:36:39.859Z,5.10
2019-03-18T20:41:33.208Z,5.00
2019-03-18T20:46:26.299Z,5.10
2019-03-18T20:51:19.629Z,5.10
2019-03-18T20:56:12.784Z,5.20
2019-03-18T21:01:05.966Z,5.20
2019-03-18T21:05:59.301Z,5.10
2019-03-18T21:10:55.281Z,5.20
2019-03-18T21:15:48.424Z,5.80
2019-03-18T21:20:41.496Z,5.10
2019-03-18T21:25:34.698Z,5.00
2019-03-18T21:30:27.871Z,4.90
2019-03-18T21:35:21.173Z,4.60
2019-03-18T21:40:15.526Z,4.60
2019-03-18T21:45:12.077Z,4.60
2019-03-18T21:50:05.399Z,4.60
2019-03-18T21:54:58.754Z,4.60
2019-03-18T21:59:51.880Z,4.40
2019-03-18T22:04:45.060Z,4.30
2019-03-18T22:09:38.908Z,4.10
2019-03-18T22:14:32.561Z,4.00
2019-03-18T22:19:25.678Z,3.90
2019-03-18T22:24:18.772Z,4.00
2019-03-18T22:29:11.860Z,3.90
2019-03-18T22:34:05.045Z,4.00
2019-03-18T22:38:58.269Z,4.10
2019-03-18T22:43:51.346Z,4.00
2019-03-18T22:48:44.512Z,3.80
2019-03-18T22:53:37.633Z,3.70
2019-03-18T22:58:30.989Z,3.80
2019-03-18T23:03:24.209Z,3.80
2019-03-18T23:08:17.321Z,3.70
2019-03-18T23:13:10.405Z,3.60
2019-03-18T23:18:04.001Z,3.60
2019-03-18T23:22:57.655Z,3.60
2019-03-18T23:27:50.836Z,3.50
2019-03-18T23:32:44.477Z,3.50
2019-03-18T23:37:37.735Z,3.30
2019-03-18T23:42:30.932Z,3.20
2019-03-18T23:47:24.192Z,3.20
2019-03-18T23:52:17.328Z,3.20
2019-03-18T23:57:11.994Z,3.10
